Other Surface Observations
Issued by NWS Great Falls, MT

Home | Current Version | Previous Version | Text Only | Print | Product List | Glossary On
Versions: 1 2 3 4 5 6 7 8 9 10 11 12 13 14 15 16 17 18 19 20 21 22 23 24 25 26 27 28 29 30 31 32 33 34 35 36 37 38 39 40 41 42 43 44 45 46 47 48 49 50
000
SXUS55 KTFX 241829
OSOTFX
AREA AWOS OBSERVATIONS
NATIONAL WEATHER SERVICE GREAT FALLS MT
1229 PM MDT SAT JUN 24 2017

METAR KPWD 241830Z AUTO 33014G21KT 10SM 16/01 A3028 RMK PLENTYWOOD
METAR KPO1 241830Z AUTO 30017G21KT 10SM 18/01 A3029 RMK POPLAR
METAR K1S3 241830Z AUTO 30007KT 10SM 21/01 A3028 RMK FORSYTH
METAR KS71 241830Z AUTO 29006KT 10SM 21/02 A3031 RMK CHINOOK
METAR K79S 241830Z AUTO 7SM 22/03 A3034 RMK FORT BENTON
METAR K38S 241830Z AUTO 00000KT 10SM 21/02 A3035 RMK DEER LODGE
METAR K3U3 241830Z AUTO 09003KT 10SM 20/01 A3032 RMK ANACONDA
METAR K6S5 241830Z AUTO 00000KT 2SM 21/04 A3028 RMK A01 VIS 1 1/4V3 RMK HAMILTON
METAR K88M 241830Z AUTO 10SM 22/05 A3028 RMK EUREKA



USA.gov is the U.S. government's official web portal to all federal, state and local government web resources and services.